Time;durP1;ratioP1;P1;durP2;ratioP2;P2;SDS_P1;SDS_P2;PMS_P1;PMS_P2;Temp;Humidity;BMP_temperature;BMP_pressure;BME280_temperature;BME280_humidity;BME280_pressure;Samples;Min_cycle;Max_cycle;Signal;HPM_P1;HPM_P2
2022/04/20 00:01:24;;;;;;;4.32;2.85;;;11.20;99.90;;;;;;5093595;28;20177;-51
2022/04/20 00:03:49;;;;;;;5.40;2.95;;;11.10;99.90;;;;;;5093716;28;20245;-52
2022/04/20 00:06:15;;;;;;;4.32;2.55;;;11.10;99.90;;;;;;5093203;28;20245;-51
2022/04/20 00:08:41;;;;;;;8.70;2.88;;;11.10;99.90;;;;;;5093790;28;20165;-51
2022/04/20 00:11:07;;;;;;;13.13;7.50;;;11.10;99.90;;;;;;5094008;28;20616;-52
2022/04/20 00:13:33;;;;;;;5.80;3.92;;;11.10;99.90;;;;;;5093581;28;20252;-52
2022/04/20 00:15:59;;;;;;;5.85;3.85;;;11.00;99.90;;;;;;5093113;28;20222;-52
2022/04/20 00:18:25;;;;;;;6.93;3.47;;;11.00;99.90;;;;;;5093202;28;20157;-52
2022/04/20 00:20:50;;;;;;;6.25;2.40;;;11.00;99.90;;;;;;5093433;28;20217;-52
2022/04/20 00:23:16;;;;;;;9.57;5.25;;;10.90;99.90;;;;;;5093229;28;20227;-52
2022/04/20 00:25:41;;;;;;;7.97;4.75;;;10.90;99.90;;;;;;5093402;28;20583;-52
2022/04/20 00:28:07;;;;;;;29.42;14.77;;;10.90;99.90;;;;;;5093467;28;20169;-52
2022/04/20 00:30:32;;;;;;;10.63;6.05;;;10.90;99.90;;;;;;5093120;28;20514;-52
2022/04/20 00:32:59;;;;;;;9.73;5.15;;;10.90;99.90;;;;;;5093180;28;20758;-52
2022/04/20 00:35:25;;;;;;;13.05;6.90;;;10.80;99.90;;;;;;5093208;28;20169;-51
2022/04/20 00:37:50;;;;;;;24.02;10.13;;;10.70;99.90;;;;;;5093013;28;20641;-52
2022/04/20 00:40:17;;;;;;;17.48;8.57;;;10.70;99.90;;;;;;5092719;28;20216;-52
2022/04/20 00:42:42;;;;;;;5.72;3.10;;;10.80;99.90;;;;;;5093123;28;20176;-52
2022/04/20 00:45:09;;;;;;;4.85;3.00;;;10.80;99.90;;;;;;5093049;28;20167;-51
2022/04/20 00:47:39;;;;;;;3.17;2.42;;;10.70;99.90;;;;;;5092734;28;20242;-51
2022/04/20 00:50:06;;;;;;;2.50;2.30;;;10.70;99.90;;;;;;5092683;28;20596;-52
2022/04/20 00:52:32;;;;;;;4.40;2.47;;;10.60;99.90;;;;;;5092624;28;20161;-52
2022/04/20 00:54:59;;;;;;;6.35;2.55;;;10.50;99.90;;;;;;5092256;28;20169;-52
2022/04/20 00:57:25;;;;;;;13.02;4.28;;;10.60;99.90;;;;;;5092545;28;20514;-52
2022/04/20 00:59:52;;;;;;;9.40;4.32;;;10.50;99.90;;;;;;5092465;28;20242;-52
2022/04/20 01:02:18;;;;;;;5.00;2.88;;;10.40;99.90;;;;;;5092555;28;20588;-51
2022/04/20 01:04:45;;;;;;;5.05;2.63;;;10.30;99.90;;;;;;5092417;28;20232;-52
2022/04/20 01:07:15;;;;;;;5.75;2.38;;;10.20;99.90;;;;;;5092879;28;20191;-52
2022/04/20 01:09:41;;;;;;;3.95;2.60;;;10.20;99.90;;;;;;5092784;28;20161;-53
2022/04/20 01:12:08;;;;;;;3.25;2.58;;;10.20;99.90;;;;;;5092653;28;20169;-51
2022/04/20 01:14:34;;;;;;;4.95;2.88;;;10.20;99.90;;;;;;5092263;28;20173;-51
2022/04/20 01:17:00;;;;;;;6.47;2.10;;;10.20;99.90;;;;;;5092499;28;20169;-52
2022/04/20 01:19:39;;;;;;;2.30;1.90;;;10.20;99.90;;;;;;5092132;28;20250;-52
2022/04/20 01:22:08;;;;;;;3.75;2.20;;;10.20;99.90;;;;;;5092186;28;20177;-51
2022/04/20 01:24:36;;;;;;;2.50;2.10;;;10.10;99.90;;;;;;5092122;28;20203;-51
2022/04/20 01:27:02;;;;;;;6.72;2.33;;;10.10;99.90;;;;;;5092106;28;20153;-52
2022/04/20 01:29:29;;;;;;;4.05;2.58;;;10.10;99.90;;;;;;5092068;28;20201;-51
2022/04/20 01:31:55;;;;;;;3.78;2.30;;;10.10;99.90;;;;;;5091728;28;20691;-51
2022/04/20 01:34:25;;;;;;;4.28;2.10;;;10.10;99.90;;;;;;5091929;28;20165;-51
2022/04/20 01:36:51;;;;;;;2.13;1.92;;;10.10;99.90;;;;;;5090344;28;20257;-51
2022/04/20 01:39:17;;;;;;;2.92;2.40;;;10.10;99.90;;;;;;5091844;28;20206;-51
2022/04/20 01:41:43;;;;;;;4.93;2.25;;;10.10;99.90;;;;;;5091960;28;20169;-51
2022/04/20 01:44:09;;;;;;;3.30;2.38;;;10.00;99.90;;;;;;5092058;28;20637;-51
2022/04/20 01:46:35;;;;;;;3.40;2.45;;;10.00;99.90;;;;;;5091724;28;20196;-51
2022/04/20 01:49:01;;;;;;;2.17;1.98;;;10.10;99.90;;;;;;5092022;28;20638;-52
2022/04/20 01:54:11;;;;;;;3.50;2.03;;;9.90;99.90;;;;;;5092103;28;20171;-51
2022/04/20 01:56:37;;;;;;;2.17;1.92;;;9.90;99.90;;;;;;5091997;28;20576;-52
2022/04/20 01:59:03;;;;;;;3.13;2.05;;;10.00;99.90;;;;;;5091650;28;20653;-51
2022/04/20 02:04:12;;;;;;;3.92;2.00;;;9.90;99.90;;;;;;5091910;28;20180;-51
2022/04/20 02:06:38;;;;;;;3.10;2.53;;;9.80;99.90;;;;;;5092511;28;20241;-52
2022/04/20 02:09:03;;;;;;;4.95;2.40;;;9.80;99.90;;;;;;5095782;28;20256;-51
2022/04/20 02:11:29;;;;;;;3.33;2.85;;;9.70;99.90;;;;;;5095814;28;20169;-51
2022/04/20 02:13:54;;;;;;;3.50;2.28;;;9.80;99.90;;;;;;5095648;28;20161;-51
2022/04/20 02:16:20;;;;;;;3.75;2.22;;;9.70;99.90;;;;;;5095687;28;20662;-51
2022/04/20 02:18:45;;;;;;;3.95;2.50;;;9.70;99.90;;;;;;5095633;28;20252;-51
2022/04/20 02:21:11;;;;;;;4.60;3.08;;;9.60;99.90;;;;;;5095541;28;20510;-51
2022/04/20 02:23:37;;;;;;;16.60;9.90;;;11.10;99.90;;;;;;5095869;28;20173;-51
2022/04/20 02:26:02;;;;;;;8.48;5.78;;;9.70;99.90;;;;;;5095500;28;20230;-51
2022/04/20 02:28:28;;;;;;;6.72;4.60;;;9.70;99.90;;;;;;5095585;28;20165;-51
2022/04/20 02:30:53;;;;;;;6.00;3.80;;;9.70;99.90;;;;;;5095457;28;20661;-51
2022/04/20 02:33:19;;;;;;;9.45;5.43;;;9.70;99.90;;;;;;5095355;28;20176;-51
2022/04/20 02:35:45;;;;;;;14.05;10.20;;;9.70;99.90;;;;;;5095310;28;20177;-51
2022/04/20 02:38:11;;;;;;;15.07;11.63;;;9.60;99.90;;;;;;5095591;28;20244;-51
2022/04/20 02:40:38;;;;;;;11.82;8.60;;;9.60;99.90;;;;;;5096181;28;20212;-51
2022/04/20 02:43:04;;;;;;;6.70;5.50;;;9.60;99.90;;;;;;5095391;28;20172;-51
2022/04/20 02:45:29;;;;;;;7.80;7.10;;;9.50;99.90;;;;;;5095159;28;20169;-51
2022/04/20 02:47:55;;;;;;;6.88;4.00;;;9.50;99.90;;;;;;5095114;28;20161;-51
2022/04/20 02:50:21;;;;;;;4.70;3.60;;;9.40;99.90;;;;;;5095000;28;20531;-52
2022/04/20 02:52:46;;;;;;;2.97;2.47;;;9.40;99.90;;;;;;5094992;28;20246;-51
2022/04/20 02:55:12;;;;;;;3.65;2.33;;;9.40;99.90;;;;;;5094997;28;20180;-51
2022/04/20 02:57:37;;;;;;;7.75;2.75;;;9.40;99.90;;;;;;5095188;28;20200;-51
2022/04/20 03:00:04;;;;;;;5.50;2.55;;;9.40;99.90;;;;;;5094825;28;20266;-52
2022/04/20 03:02:31;;;;;;;2.47;2.10;;;9.30;99.90;;;;;;5094822;28;20158;-52
2022/04/20 03:04:56;;;;;;;3.28;2.03;;;9.30;99.90;;;;;;5094804;28;20228;-52
2022/04/20 03:07:22;;;;;;;2.80;2.30;;;9.20;99.90;;;;;;5094756;28;20170;-52
2022/04/20 03:09:48;;;;;;;2.38;2.03;;;9.20;99.90;;;;;;5094942;28;20170;-52
2022/04/20 03:12:13;;;;;;;3.30;2.10;;;9.20;99.90;;;;;;5094621;28;20206;-52
2022/04/20 03:14:39;;;;;;;2.75;2.30;;;9.20;99.90;;;;;;5095067;28;20174;-52
2022/04/20 03:17:05;;;;;;;3.30;2.20;;;9.20;99.90;;;;;;5094059;28;20192;-52
2022/04/20 03:19:30;;;;;;;7.97;2.40;;;9.20;99.90;;;;;;5094341;28;20927;-52
2022/04/20 03:21:56;;;;;;;5.45;2.10;;;9.20;99.90;;;;;;5094485;28;20211;-52
2022/04/20 03:24:21;;;;;;;6.03;2.30;;;9.10;99.90;;;;;;5094467;28;20176;-52
2022/04/20 03:26:47;;;;;;;2.92;2.35;;;9.20;99.90;;;;;;5094404;28;20591;-53
2022/04/20 03:29:12;;;;;;;3.15;2.35;;;9.20;99.90;;;;;;5094597;28;20508;-51
2022/04/20 03:31:40;;;;;;;2.85;2.10;;;9.10;99.90;;;;;;5094593;28;20173;-52
2022/04/20 03:34:06;;;;;;;2.42;2.10;;;9.20;99.90;;;;;;5094463;28;20165;-51
2022/04/20 03:36:32;;;;;;;2.47;2.08;;;9.20;99.90;;;;;;5094445;28;20622;-51
2022/04/20 03:38:58;;;;;;;3.42;2.13;;;9.20;99.90;;;;;;5093957;28;20605;-52
2022/04/20 03:41:23;;;;;;;2.50;2.30;;;9.20;99.90;;;;;;5094079;28;20177;-52
2022/04/20 03:43:49;;;;;;;2.60;2.10;;;9.10;99.90;;;;;;5094143;28;20165;-52
2022/04/20 03:46:15;;;;;;;4.03;2.30;;;9.10;99.90;;;;;;5093928;28;20177;-52
2022/04/20 03:48:41;;;;;;;5.78;2.72;;;9.00;99.90;;;;;;5094450;28;20226;-51
2022/04/20 03:51:07;;;;;;;7.53;2.30;;;9.00;99.90;;;;;;5094488;28;20165;-52
2022/04/20 03:53:32;;;;;;;4.55;3.10;;;9.00;99.90;;;;;;5093784;28;20530;-52
2022/04/20 03:55:58;;;;;;;3.47;2.58;;;9.00;99.90;;;;;;5093747;28;20174;-51
2022/04/20 03:58:23;;;;;;;6.05;2.35;;;9.00;99.90;;;;;;5094233;28;20165;-51
2022/04/20 04:00:51;;;;;;;2.60;2.22;;;9.00;99.90;;;;;;5093646;28;20209;-52
2022/04/20 04:03:17;;;;;;;5.25;2.33;;;8.90;99.90;;;;;;5093896;28;20209;-52
2022/04/20 04:05:43;;;;;;;7.30;2.20;;;8.90;99.90;;;;;;5093447;28;20286;-52
2022/04/20 04:08:09;;;;;;;3.22;2.05;;;8.90;99.90;;;;;;5093816;28;20526;-52
2022/04/20 04:10:34;;;;;;;3.88;2.40;;;8.90;99.90;;;;;;5093493;28;20169;-52
2022/04/20 04:13:00;;;;;;;3.25;2.30;;;8.90;99.90;;;;;;5093663;28;20176;-52
2022/04/20 04:15:25;;;;;;;5.03;2.05;;;8.80;99.90;;;;;;5093306;28;20176;-53
2022/04/20 04:17:54;;;;;;;4.10;2.20;;;8.80;99.90;;;;;;5093358;28;20257;-52
2022/04/20 04:20:22;;;;;;;5.30;2.42;;;8.80;99.90;;;;;;5093206;28;20224;-52
2022/04/20 04:22:51;;;;;;;6.32;2.47;;;8.70;99.90;;;;;;5093243;28;20198;-50
2022/04/20 04:25:17;;;;;;;5.85;2.92;;;8.80;99.90;;;;;;5093174;28;20168;-51
2022/04/20 04:27:43;;;;;;;3.75;2.40;;;8.80;99.90;;;;;;5093096;28;20173;-51
2022/04/20 04:30:09;;;;;;;3.65;2.38;;;8.70;99.90;;;;;;5092403;28;20567;-51
2022/04/20 04:32:35;;;;;;;6.65;3.03;;;8.70;99.90;;;;;;5093056;28;20172;-51
2022/04/20 04:35:01;;;;;;;3.78;2.80;;;8.60;99.90;;;;;;5093036;28;20165;-52
2022/04/20 04:37:27;;;;;;;5.47;2.78;;;8.60;99.90;;;;;;5092871;28;20165;-51
2022/04/20 04:39:52;;;;;;;6.07;2.63;;;8.60;99.90;;;;;;5092855;28;20204;-51
2022/04/20 04:42:18;;;;;;;5.18;2.40;;;8.60;99.90;;;;;;5092885;28;20281;-51
2022/04/20 04:44:43;;;;;;;4.63;2.50;;;8.60;99.90;;;;;;5092974;28;20597;-51
2022/04/20 04:49:55;;;;;;;4.05;2.70;;;8.60;99.90;;;;;;5081206;28;20185;-51
2022/04/20 04:52:20;;;;;;;4.55;2.70;;;8.70;99.90;;;;;;5092730;28;20168;-52
2022/04/20 04:54:46;;;;;;;3.65;2.30;;;8.70;99.90;;;;;;5092476;28;20193;-52
2022/04/20 04:57:12;;;;;;;6.95;2.63;;;8.70;99.90;;;;;;5092931;28;20196;-51
2022/04/20 04:59:41;;;;;;;4.97;2.60;;;8.70;99.90;;;;;;5092856;28;20278;-51
2022/04/20 05:02:08;;;;;;;6.57;2.70;;;8.70;99.90;;;;;;5092504;28;20626;-51
2022/04/20 05:04:39;;;;;;;6.05;2.72;;;8.80;99.90;;;;;;5092276;28;20169;-51
2022/04/20 05:07:05;;;;;;;3.20;2.67;;;8.80;99.90;;;;;;5092686;28;20176;-52
2022/04/20 05:09:31;;;;;;;2.88;2.50;;;8.90;99.90;;;;;;5092371;28;20391;-52
2022/04/20 05:11:56;;;;;;;5.35;2.80;;;8.80;99.90;;;;;;5092576;28;20176;-51
2022/04/20 05:14:22;;;;;;;6.75;2.72;;;8.80;99.90;;;;;;5092655;28;20170;-51
2022/04/20 05:16:48;;;;;;;4.50;2.60;;;8.90;99.90;;;;;;5092329;28;20157;-51
2022/04/20 05:19:14;;;;;;;5.68;2.80;;;8.80;99.90;;;;;;5092212;28;20600;-51
2022/04/20 05:21:40;;;;;;;4.57;2.90;;;8.90;99.90;;;;;;5092431;28;20173;-51
2022/04/20 05:24:05;;;;;;;4.07;2.92;;;9.00;99.90;;;;;;5092400;28;20522;-51
2022/04/20 05:26:31;;;;;;;7.57;2.45;;;9.10;99.90;;;;;;5092379;28;20547;-52
2022/04/20 05:28:57;;;;;;;5.88;2.75;;;9.10;99.90;;;;;;5092010;28;20165;-52
2022/04/20 05:31:22;;;;;;;5.18;2.63;;;9.20;99.90;;;;;;5092078;28;20181;-51
2022/04/20 05:33:49;;;;;;;3.95;2.50;;;9.20;99.90;;;;;;5092028;28;20153;-50
2022/04/20 05:36:14;;;;;;;5.78;2.75;;;9.30;99.90;;;;;;5092033;28;20169;-51
2022/04/20 05:41:39;;;;;;;3.35;2.45;;;9.50;99.90;;;;;;5091948;28;20687;-51
2022/04/20 05:44:05;;;;;;;5.15;2.40;;;9.60;99.90;;;;;;5092194;28;20220;-51
2022/04/20 05:46:32;;;;;;;8.90;2.38;;;9.70;99.90;;;;;;5091890;28;20194;-51
2022/04/20 05:48:57;;;;;;;10.45;2.75;;;9.80;99.90;;;;;;5091965;28;20173;-51
2022/04/20 05:51:23;;;;;;;2.75;2.38;;;9.80;99.90;;;;;;5092050;28;20173;-51
2022/04/20 05:53:48;;;;;;;3.80;2.25;;;9.80;99.90;;;;;;5091939;28;20550;-51
2022/04/20 05:56:14;;;;;;;8.20;2.55;;;9.70;99.90;;;;;;5091902;28;20523;-51
2022/04/20 05:58:39;;;;;;;7.80;2.20;;;9.80;99.90;;;;;;5092074;28;20208;-51
2022/04/20 06:01:05;;;;;;;4.40;2.45;;;9.90;99.90;;;;;;5091784;28;20238;-51
2022/04/20 06:03:30;;;;;;;3.08;2.20;;;10.00;99.90;;;;;;5092169;28;20173;-51
2022/04/20 06:05:56;;;;;;;3.08;2.50;;;10.00;99.90;;;;;;5091605;28;20584;-51
2022/04/20 06:08:21;;;;;;;2.55;2.35;;;10.10;99.90;;;;;;5091742;28;20165;-51
2022/04/20 06:10:47;;;;;;;3.08;2.10;;;10.10;99.90;;;;;;5091644;28;20626;-50
2022/04/20 06:13:12;;;;;;;6.80;2.58;;;10.10;99.90;;;;;;5091618;28;20174;-50
2022/04/20 06:15:38;;;;;;;2.75;1.90;;;10.30;99.90;;;;;;5091840;28;20192;-50
2022/04/20 06:18:04;;;;;;;3.63;1.90;;;10.40;99.90;;;;;;5091628;28;20194;-51
2022/04/20 06:20:29;;;;;;;4.28;2.15;;;10.40;99.90;;;;;;5091408;28;20205;-50
2022/04/20 06:22:55;;;;;;;5.10;2.78;;;10.50;99.90;;;;;;5091502;28;20188;-50
2022/04/20 06:25:20;;;;;;;7.03;3.08;;;10.70;99.90;;;;;;5090214;28;20178;-50
2022/04/20 06:27:46;;;;;;;5.10;2.33;;;10.90;99.90;;;;;;5091485;28;20221;-50
2022/04/20 06:30:12;;;;;;;4.30;2.10;;;11.00;99.90;;;;;;5091387;28;20170;-50
2022/04/20 06:32:37;;;;;;;6.13;2.30;;;10.90;99.90;;;;;;5091896;28;20248;-50
2022/04/20 06:35:03;;;;;;;5.63;2.50;;;11.00;99.90;;;;;;5091423;28;20165;-50
2022/04/20 06:37:29;;;;;;;11.13;2.30;;;11.10;99.90;;;;;;5091427;28;20196;-50
2022/04/20 06:39:56;;;;;;;4.82;2.65;;;11.20;99.90;;;;;;5091279;28;20233;-51
2022/04/20 06:42:22;;;;;;;5.95;2.63;;;11.30;99.90;;;;;;5091631;28;20169;-50
2022/04/20 06:44:48;;;;;;;3.97;2.40;;;11.40;99.90;;;;;;5091550;28;20260;-50
2022/04/20 06:47:13;;;;;;;3.72;2.53;;;11.30;99.90;;;;;;5091332;28;20208;-50
2022/04/20 06:49:39;;;;;;;3.42;2.30;;;11.40;99.90;;;;;;5073509;28;20219;-50
2022/04/20 07:00:17;;;;;;;9.13;2.97;;;11.60;99.90;;;;;;5094844;28;20212;-51
2022/04/20 07:02:43;;;;;;;4.53;2.80;;;11.80;99.90;;;;;;5095071;28;20230;-50
2022/04/20 07:05:09;;;;;;;7.55;2.90;;;11.80;99.90;;;;;;5094979;28;20247;-50
2022/04/20 07:07:35;;;;;;;5.80;2.90;;;12.00;99.90;;;;;;5094841;28;20197;-50
2022/04/20 07:10:02;;;;;;;4.78;2.97;;;12.10;99.90;;;;;;5094717;28;20173;-50
2022/04/20 07:12:28;;;;;;;2.97;2.50;;;12.20;99.90;;;;;;5092689;28;20173;-52
2022/04/20 07:14:53;;;;;;;4.03;2.90;;;12.00;99.90;;;;;;5093492;28;20222;-46
2022/04/20 07:17:19;;;;;;;14.00;3.20;;;12.10;99.90;;;;;;5093386;28;20173;-53
2022/04/20 07:19:44;;;;;;;10.95;3.25;;;12.40;99.90;;;;;;5093277;28;20201;-52
2022/04/20 07:22:10;;;;;;;8.48;3.15;;;12.40;99.90;;;;;;5093573;28;20235;-53
2022/04/20 07:24:35;;;;;;;4.75;3.15;;;12.40;99.90;;;;;;5093123;28;20189;-53
2022/04/20 07:27:01;;;;;;;5.50;2.72;;;12.60;99.90;;;;;;5093452;28;20271;-53
2022/04/20 07:29:26;;;;;;;7.57;2.60;;;12.70;99.90;;;;;;5092950;28;20170;-53
2022/04/20 07:31:52;;;;;;;9.10;2.90;;;12.70;99.90;;;;;;5093119;28;20177;-53
2022/04/20 07:34:17;;;;;;;8.10;2.97;;;11.40;99.90;;;;;;5092942;28;20165;-48
2022/04/20 07:36:43;;;;;;;6.13;2.47;;;13.00;99.90;;;;;;5093087;28;20645;-49
2022/04/20 07:39:08;;;;;;;4.75;2.75;;;13.00;99.90;;;;;;5093199;28;20201;-49
2022/04/20 07:41:34;;;;;;;3.15;2.50;;;13.00;99.90;;;;;;5092827;28;20178;-48
2022/04/20 07:43:59;;;;;;;6.03;3.15;;;13.10;99.90;;;;;;5093178;28;20183;-48
2022/04/20 07:46:25;;;;;;;5.38;2.70;;;13.20;99.90;;;;;;5092813;28;20642;-48
2022/04/20 07:48:50;;;;;;;5.78;2.65;;;13.50;99.90;;;;;;5092826;28;20158;-50
2022/04/20 07:51:17;;;;;;;5.50;2.63;;;13.40;99.90;;;;;;5092822;28;20216;-50
2022/04/20 07:53:43;;;;;;;5.43;2.00;;;13.60;97.50;;;;;;5092667;28;20174;-51
2022/04/20 07:56:10;;;;;;;2.83;1.92;;;13.70;95.80;;;;;;5092998;28;20173;-53
2022/04/20 07:58:36;;;;;;;3.47;2.10;;;13.70;93.40;;;;;;5092757;28;20657;-45
2022/04/20 08:01:02;;;;;;;5.88;2.00;;;13.70;92.50;;;;;;5092465;28;20209;-47
2022/04/20 08:03:27;;;;;;;5.63;2.15;;;13.80;91.40;;;;;;5092316;28;20162;-51
2022/04/20 08:05:55;;;;;;;4.43;2.10;;;13.90;91.50;;;;;;5092358;28;20232;-46
2022/04/20 08:08:24;;;;;;;3.03;1.98;;;14.10;91.30;;;;;;5092145;28;20169;-49
2022/04/20 08:10:50;;;;;;;3.05;2.15;;;14.10;90.60;;;;;;5091875;28;20230;-45
2022/04/20 08:16:00;;;;;;;4.88;2.28;;;14.20;87.80;;;;;;5092532;28;20291;-50
2022/04/20 08:18:26;;;;;;;3.90;1.98;;;14.20;84.70;;;;;;5091881;28;20189;-51
2022/04/20 08:20:52;;;;;;;2.38;1.98;;;14.60;85.30;;;;;;5091743;28;20284;-50
2022/04/20 08:23:18;;;;;;;2.35;2.15;;;14.60;84.70;;;;;;5092111;28;20638;-50
2022/04/20 08:25:45;;;;;;;4.20;2.30;;;14.50;85.50;;;;;;5091771;28;20214;-51
2022/04/20 08:28:12;;;;;;;2.47;2.17;;;14.60;84.60;;;;;;5092025;28;20256;-50
2022/04/20 08:30:39;;;;;;;4.28;2.10;;;14.70;83.20;;;;;;5091984;28;20181;-51
2022/04/20 08:33:07;;;;;;;3.35;2.20;;;14.90;83.70;;;;;;5092025;28;20154;-50
2022/04/20 08:35:37;;;;;;;2.72;2.13;;;14.90;79.50;;;;;;5092013;28;20530;-50
2022/04/20 08:38:06;;;;;;;3.67;1.92;;;14.70;78.30;;;;;;5092132;28;20256;-51
2022/04/20 08:40:33;;;;;;;7.72;2.20;;;14.80;81.10;;;;;;5091359;28;20209;-50
2022/04/20 08:43:01;;;;;;;3.63;2.58;;;15.00;80.00;;;;;;5091551;28;20158;-51
2022/04/20 08:45:28;;;;;;;3.60;2.35;;;15.30;79.60;;;;;;5091545;28;20196;-50
2022/04/20 08:47:56;;;;;;;3.65;2.22;;;15.20;76.70;;;;;;5091522;28;20177;-51
2022/04/20 08:50:23;;;;;;;4.28;2.53;;;15.30;78.10;;;;;;5091417;28;20230;-50
2022/04/20 08:52:50;;;;;;;9.43;2.53;;;15.10;75.20;;;;;;5091036;28;20219;-50
2022/04/20 08:55:18;;;;;;;4.07;2.30;;;15.30;76.10;;;;;;5090998;28;20218;-50
2022/04/20 08:57:45;;;;;;;2.55;1.70;;;15.40;77.10;;;;;;5091386;28;20187;-51
2022/04/20 09:00:14;;;;;;;5.70;2.10;;;15.60;76.10;;;;;;5091527;28;20344;-51
2022/04/20 09:02:39;;;;;;;4.60;1.88;;;15.60;74.00;;;;;;5091287;28;20217;-51
2022/04/20 09:05:05;;;;;;;4.28;2.53;;;15.40;74.70;;;;;;5090604;28;20221;-52
2022/04/20 09:07:32;;;;;;;4.97;2.25;;;15.90;76.00;;;;;;5090868;28;20161;-49
2022/04/20 09:09:58;;;;;;;3.28;1.85;;;16.10;74.70;;;;;;5091021;28;20180;-49
2022/04/20 09:12:25;;;;;;;1.80;1.70;;;15.50;70.50;;;;;;5091126;28;20241;-52
2022/04/20 09:14:52;;;;;;;4.95;1.88;;;15.90;72.40;;;;;;5090141;28;20212;-52
2022/04/20 09:17:20;;;;;;;4.80;1.63;;;16.20;71.70;;;;;;5091151;28;20173;-52
2022/04/20 09:19:53;;;;;;;2.20;2.00;;;16.00;70.10;;;;;;5089244;28;20678;-52
2022/04/20 09:22:32;;;;;;;2.33;2.10;;;16.00;71.10;;;;;;5091101;28;20168;-52
2022/04/20 09:25:14;;;;;;;3.67;1.95;;;16.10;70.90;;;;;;5090925;28;20226;-52
2022/04/20 09:27:42;;;;;;;2.83;2.13;;;16.00;71.40;;;;;;5091302;28;20161;-52
2022/04/20 09:30:16;;;;;;;3.42;2.22;;;16.30;71.50;;;;;;5091189;28;20176;-55
2022/04/20 09:32:45;;;;;;;2.35;1.90;;;16.30;70.20;;;;;;5090639;28;20396;-52
2022/04/20 09:35:21;;;;;;;3.05;2.03;;;16.30;71.30;;;;;;5091310;28;20165;-52
2022/04/20 09:38:04;;;;;;;2.67;1.83;;;16.40;70.20;;;;;;5090886;28;20202;-51
2022/04/20 09:40:34;;;;;;;5.32;2.00;;;16.40;69.50;;;;;;5090581;28;20253;-52
2022/04/20 09:43:03;;;;;;;6.70;2.15;;;16.50;70.90;;;;;;5090600;28;20166;-52
2022/04/20 09:45:30;;;;;;;2.75;1.88;;;16.70;71.10;;;;;;5090742;28;20165;-52
2022/04/20 09:50:42;;;;;;;3.25;2.10;;;16.50;69.30;;;;;;5091238;28;20225;-52
2022/04/20 09:53:12;;;;;;;2.63;1.90;;;15.90;69.50;;;;;;5091265;28;20169;-52
2022/04/20 09:55:39;;;;;;;2.88;2.20;;;16.60;71.10;;;;;;5090900;28;20518;-53
2022/04/20 09:58:18;;;;;;;2.55;2.15;;;16.60;71.60;;;;;;5090296;28;20173;-52
2022/04/20 10:00:51;;;;;;;4.65;2.33;;;16.50;69.50;;;;;;5090442;28;20209;-52
2022/04/20 10:03:31;;;;;;;2.47;1.75;;;16.70;70.90;;;;;;5090423;28;20161;-52
2022/04/20 10:05:58;;;;;;;5.88;2.47;;;16.90;71.60;;;;;;5088660;28;20240;-53
2022/04/20 10:08:24;;;;;;;3.35;2.08;;;16.90;69.50;;;;;;5090736;28;20181;-52
2022/04/20 10:10:53;;;;;;;2.15;1.92;;;16.90;69.70;;;;;;5090556;28;20198;-53
2022/04/20 10:13:19;;;;;;;2.55;2.15;;;17.20;68.70;;;;;;5089037;28;20177;-52
2022/04/20 10:18:33;;;;;;;2.35;2.15;;;16.80;67.90;;;;;;5090407;28;20193;-53
2022/04/20 10:21:00;;;;;;;4.72;2.45;;;17.10;69.20;;;;;;5090741;28;20228;-52
2022/04/20 10:23:29;;;;;;;3.38;2.00;;;17.20;68.50;;;;;;5090588;28;20239;-52
2022/04/20 10:25:56;;;;;;;2.95;1.92;;;17.30;68.30;;;;;;5090674;28;20180;-53
2022/04/20 10:28:36;;;;;;;2.33;2.10;;;17.40;68.50;;;;;;5092348;28;20165;-53
2022/04/20 10:31:13;;;;;;;5.47;3.72;;;17.30;67.10;;;;;;5094410;28;20172;-52
2022/04/20 10:33:41;;;;;;;2.70;1.88;;;17.50;68.30;;;;;;5094507;28;20157;-53
2022/04/20 10:36:11;;;;;;;4.68;2.00;;;17.40;68.10;;;;;;5094516;28;20633;-52
2022/04/20 10:38:38;;;;;;;7.18;2.45;;;17.40;67.70;;;;;;5094780;28;20213;-52
2022/04/20 10:41:07;;;;;;;5.97;2.30;;;17.50;66.90;;;;;;5094107;28;20196;-53
2022/04/20 10:43:35;;;;;;;3.92;2.17;;;17.60;67.30;;;;;;5094041;28;20215;-53
2022/04/20 10:46:11;;;;;;;6.18;3.05;;;17.70;65.90;;;;;;5094051;28;20246;-53
2022/04/20 10:48:58;;;;;;;8.43;5.68;;;17.80;68.30;;;;;;5094311;28;20218;-52
2022/04/20 10:51:35;;;;;;;4.55;2.08;;;17.60;64.20;;;;;;5094057;28;20173;-52
2022/04/20 10:54:29;;;;;;;7.50;4.35;;;17.80;67.40;;;;;;5093860;28;20287;-53
2022/04/20 10:57:01;;;;;;;13.15;6.40;;;18.00;64.90;;;;;;5094126;28;20157;-52
2022/04/20 10:59:28;;;;;;;9.70;6.40;;;18.10;66.80;;;;;;5093433;28;20189;-53
2022/04/20 11:02:02;;;;;;;5.25;2.70;;;18.20;65.70;;;;;;5093687;28;20173;-52
2022/04/20 11:04:46;;;;;;;7.68;4.30;;;18.30;64.40;;;;;;5093316;28;20164;-53
2022/04/20 11:07:15;;;;;;;3.10;2.47;;;18.40;67.00;;;;;;5093708;28;20178;-53
2022/04/20 11:09:48;;;;;;;5.28;2.20;;;18.60;65.40;;;;;;5094095;28;20172;-52
2022/04/20 11:21:09;;;;;;;7.05;4.28;;;18.70;66.20;;;;;;5093297;28;20215;-52
2022/04/20 11:24:03;;;;;;;11.15;5.68;;;18.80;65.60;;;;;;5093401;28;20625;-52
2022/04/20 11:26:39;;;;;;;3.38;2.60;;;18.80;65.30;;;;;;5093318;28;20642;-53
2022/04/20 11:29:28;;;;;;;6.57;2.00;;;18.80;64.30;;;;;;5093204;28;20894;-53
2022/04/20 11:32:00;;;;;;;3.33;1.90;;;18.80;65.60;;;;;;5093160;28;20181;-53
2022/04/20 11:34:28;;;;;;;2.60;1.95;;;18.60;64.30;;;;;;5093150;28;20173;-53
2022/04/20 11:36:56;;;;;;;3.95;2.53;;;18.80;65.90;;;;;;5093168;28;20188;-52
2022/04/20 11:39:24;;;;;;;4.22;2.22;;;18.50;64.20;;;;;;5092451;28;20193;-52
2022/04/20 11:41:51;;;;;;;10.82;7.93;;;18.70;63.20;;;;;;5093026;28;20171;-52
2022/04/20 11:44:28;;;;;;;3.08;2.10;;;18.50;64.10;;;;;;5093147;28;20165;-53
2022/04/20 11:47:02;;;;;;;8.00;4.00;;;18.80;64.60;;;;;;5093066;28;20173;-53
2022/04/20 11:49:43;;;;;;;3.65;2.65;;;18.70;65.30;;;;;;5092397;28;20215;-53
2022/04/20 11:52:11;;;;;;;3.30;1.80;;;19.10;64.60;;;;;;5093301;28;20161;-52
2022/04/20 11:54:38;;;;;;;1.70;1.60;;;18.90;64.70;;;;;;5092857;28;20183;-53
2022/04/20 11:57:04;;;;;;;2.95;1.77;;;18.60;62.80;;;;;;5092609;28;20645;-53
2022/04/20 11:59:30;;;;;;;2.63;2.22;;;18.60;62.70;;;;;;5092300;28;20195;-52
2022/04/20 12:01:56;;;;;;;4.20;2.00;;;18.60;62.80;;;;;;5092562;28;20170;-53
2022/04/20 12:04:27;;;;;;;5.43;2.00;;;18.80;62.90;;;;;;5092651;28;20192;-52
2022/04/20 12:06:58;;;;;;;2.72;1.90;;;18.80;61.40;;;;;;5092553;28;20217;-52
2022/04/20 12:09:36;;;;;;;8.48;3.95;;;19.00;62.00;;;;;;5092548;28;20584;-53
2022/04/20 12:12:09;;;;;;;14.50;8.40;;;19.20;62.90;;;;;;5091666;28;20173;-53
2022/04/20 12:14:37;;;;;;;3.60;2.47;;;19.30;63.50;;;;;;5091438;28;20191;-53
2022/04/20 12:17:10;;;;;;;5.72;1.90;;;19.40;61.40;;;;;;5091624;28;20284;-53
2022/04/20 12:19:36;;;;;;;6.03;3.40;;;19.50;62.30;;;;;;5091457;28;20665;-52
2022/04/20 12:22:09;;;;;;;7.88;4.63;;;19.30;62.80;;;;;;5091806;28;20178;-52
2022/04/20 12:24:35;;;;;;;4.75;2.30;;;19.50;63.80;;;;;;5091975;28;20801;-53
2022/04/20 12:27:01;;;;;;;9.18;5.13;;;19.50;63.20;;;;;;5092130;28;20248;-52
2022/04/20 12:29:30;;;;;;;3.85;2.22;;;19.40;61.90;;;;;;5092238;28;20581;-52
2022/04/20 12:31:56;;;;;;;5.63;2.80;;;19.50;60.80;;;;;;5092246;28;20173;-51
2022/04/20 12:34:26;;;;;;;4.45;3.03;;;19.60;61.40;;;;;;5091958;28;20165;-52
2022/04/20 12:36:58;;;;;;;4.97;3.05;;;19.70;61.40;;;;;;5092135;28;20211;-52
2022/04/20 12:39:35;;;;;;;5.55;3.55;;;19.50;59.70;;;;;;5091656;28;20578;-52
2022/04/20 12:42:10;;;;;;;7.18;4.22;;;19.50;60.30;;;;;;5092104;28;20209;-53
2022/04/20 12:44:40;;;;;;;4.63;2.78;;;19.50;62.90;;;;;;5091591;28;20195;-52
2022/04/20 12:47:08;;;;;;;9.00;4.68;;;19.60;63.90;;;;;;5091712;28;20157;-53
2022/04/20 12:49:41;;;;;;;88.00;35.42;;;19.70;62.80;;;;;;5091419;28;20213;-52
2022/04/20 12:52:08;;;;;;;3.28;3.03;;;19.90;62.70;;;;;;5090274;28;20153;-52
2022/04/20 12:54:34;;;;;;;2.80;2.10;;;19.90;63.20;;;;;;5091820;28;20173;-52
2022/04/20 13:02:28;;;;;;;2.10;1.90;;;20.10;63.90;;;;;;5091373;28;20176;-53
2022/04/20 13:04:53;;;;;;;3.92;3.53;;;19.90;60.70;;;;;;5091205;28;20589;-53
2022/04/20 13:07:19;;;;;;;3.90;2.67;;;19.90;62.00;;;;;;5091324;28;20252;-53
2022/04/20 13:09:44;;;;;;;3.53;2.20;;;19.90;62.90;;;;;;5091416;28;20286;-52
2022/04/20 13:12:11;;;;;;;7.68;3.75;;;20.10;62.60;;;;;;5091213;28;20170;-53
2022/04/20 13:14:37;;;;;;;3.28;2.95;;;20.10;62.90;;;;;;5091343;28;20222;-52
2022/04/20 13:17:03;;;;;;;2.47;1.80;;;20.30;62.10;;;;;;5091078;28;20177;-52
2022/04/20 13:19:29;;;;;;;2.90;1.98;;;20.20;63.00;;;;;;5091197;28;20205;-52
2022/04/20 13:21:54;;;;;;;4.63;2.10;;;20.30;63.30;;;;;;5091023;28;20157;-52
2022/04/20 13:29:48;;;;;;;2.60;1.77;;;20.40;61.70;;;;;;5090739;28;20578;-52
2022/04/20 13:32:14;;;;;;;2.22;1.63;;;20.20;62.50;;;;;;5090863;28;20165;-52
2022/04/20 13:34:41;;;;;;;2.35;1.90;;;20.20;61.30;;;;;;5091061;28;20184;-52
2022/04/20 13:37:06;;;;;;;3.97;1.70;;;20.30;61.10;;;;;;5090919;28;20176;-53